sensor_id;sensor_type;location;lat;lon;timestamp;temperature;humidity
13245;DHT22;6689;53.400;12.486;2022-09-13T00:00:10;16.00;99.90
13245;DHT22;6689;53.400;12.486;2022-09-13T00:02:54;16.00;99.90
13245;DHT22;6689;53.400;12.486;2022-09-13T00:05:25;16.00;99.90
13245;DHT22;6689;53.400;12.486;2022-09-13T00:08:09;16.00;99.90
13245;DHT22;6689;53.400;12.486;2022-09-13T00:10:50;16.00;99.90
13245;DHT22;6689;53.400;12.486;2022-09-13T00:13:31;15.90;99.90
13245;DHT22;6689;53.400;12.486;2022-09-13T00:16:13;15.90;99.90
13245;DHT22;6689;53.400;12.486;2022-09-13T00:18:48;15.90;99.90
13245;DHT22;6689;53.400;12.486;2022-09-13T00:21:20;15.90;99.90
13245;DHT22;6689;53.400;12.486;2022-09-13T00:23:52;15.90;99.90
13245;DHT22;6689;53.400;12.486;2022-09-13T00:26:21;15.80;99.90
13245;DHT22;6689;53.400;12.486;2022-09-13T00:28:54;15.80;99.90
13245;DHT22;6689;53.400;12.486;2022-09-13T00:31:35;15.90;99.90
13245;DHT22;6689;53.400;12.486;2022-09-13T00:34:04;15.80;99.90
13245;DHT22;6689;53.400;12.486;2022-09-13T00:36:45;15.80;99.90
13245;DHT22;6689;53.400;12.486;2022-09-13T00:39:25;15.80;99.90
13245;DHT22;6689;53.400;12.486;2022-09-13T00:41:55;15.80;99.90
13245;DHT22;6689;53.400;12.486;2022-09-13T00:44:52;15.70;99.90
13245;DHT22;6689;53.400;12.486;2022-09-13T00:47:25;15.70;99.90
13245;DHT22;6689;53.400;12.486;2022-09-13T00:50:05;15.70;99.90
13245;DHT22;6689;53.400;12.486;2022-09-13T00:52:36;15.60;99.90
13245;DHT22;6689;53.400;12.486;2022-09-13T00:55:12;15.60;99.90
13245;DHT22;6689;53.400;12.486;2022-09-13T00:57:59;15.50;99.90
13245;DHT22;6689;53.400;12.486;2022-09-13T01:00:36;15.50;99.90
13245;DHT22;6689;53.400;12.486;2022-09-13T01:03:08;15.40;99.90
13245;DHT22;6689;53.400;12.486;2022-09-13T01:05:43;15.40;99.90
13245;DHT22;6689;53.400;12.486;2022-09-13T01:08:16;15.40;99.90
13245;DHT22;6689;53.400;12.486;2022-09-13T01:11:16;15.40;99.90
13245;DHT22;6689;53.400;12.486;2022-09-13T01:13:46;15.40;99.90
13245;DHT22;6689;53.400;12.486;2022-09-13T01:16:22;15.40;99.90
13245;DHT22;6689;53.400;12.486;2022-09-13T01:19:03;15.40;99.90
13245;DHT22;6689;53.400;12.486;2022-09-13T01:22:06;15.40;99.90
13245;DHT22;6689;53.400;12.486;2022-09-13T01:25:22;15.40;99.90
13245;DHT22;6689;53.400;12.486;2022-09-13T01:31:19;15.50;99.90
13245;DHT22;6689;53.400;12.486;2022-09-13T01:34:00;15.50;99.90
13245;DHT22;6689;53.400;12.486;2022-09-13T01:36:55;15.50;99.90
13245;DHT22;6689;53.400;12.486;2022-09-13T01:39:41;15.50;99.90
13245;DHT22;6689;53.400;12.486;2022-09-13T01:42:21;15.50;99.90
13245;DHT22;6689;53.400;12.486;2022-09-13T01:45:08;15.50;99.90
13245;DHT22;6689;53.400;12.486;2022-09-13T01:47:57;15.50;99.90
13245;DHT22;6689;53.400;12.486;2022-09-13T01:50:45;15.50;99.90
13245;DHT22;6689;53.400;12.486;2022-09-13T01:53:33;15.50;99.90
13245;DHT22;6689;53.400;12.486;2022-09-13T01:56:17;15.50;99.90
13245;DHT22;6689;53.400;12.486;2022-09-13T01:58:51;15.50;99.90
13245;DHT22;6689;53.400;12.486;2022-09-13T02:01:36;15.50;99.90
13245;DHT22;6689;53.400;12.486;2022-09-13T02:04:22;15.50;99.90
13245;DHT22;6689;53.400;12.486;2022-09-13T02:06:59;15.50;99.90
13245;DHT22;6689;53.400;12.486;2022-09-13T02:09:31;15.50;99.90
13245;DHT22;6689;53.400;12.486;2022-09-13T02:12:04;15.50;99.90
13245;DHT22;6689;53.400;12.486;2022-09-13T02:14:38;15.50;99.90
13245;DHT22;6689;53.400;12.486;2022-09-13T02:17:08;15.50;99.90
13245;DHT22;6689;53.400;12.486;2022-09-13T02:19:59;15.50;99.90
13245;DHT22;6689;53.400;12.486;2022-09-13T02:22:28;15.50;99.90
13245;DHT22;6689;53.400;12.486;2022-09-13T02:25:02;15.50;99.90
13245;DHT22;6689;53.400;12.486;2022-09-13T02:27:33;15.50;99.90
13245;DHT22;6689;53.400;12.486;2022-09-13T02:30:04;15.50;99.90
13245;DHT22;6689;53.400;12.486;2022-09-13T02:32:39;15.50;99.90
13245;DHT22;6689;53.400;12.486;2022-09-13T02:35:19;15.50;99.90
13245;DHT22;6689;53.400;12.486;2022-09-13T02:37:49;15.50;99.90
13245;DHT22;6689;53.400;12.486;2022-09-13T02:40:21;15.50;99.90
13245;DHT22;6689;53.400;12.486;2022-09-13T02:42:55;15.50;99.90
13245;DHT22;6689;53.400;12.486;2022-09-13T02:45:30;15.50;99.90
13245;DHT22;6689;53.400;12.486;2022-09-13T02:48:02;15.50;99.90
13245;DHT22;6689;53.400;12.486;2022-09-13T02:50:48;15.50;99.90
13245;DHT22;6689;53.400;12.486;2022-09-13T02:53:36;15.50;99.90
13245;DHT22;6689;53.400;12.486;2022-09-13T02:56:24;15.50;99.90
13245;DHT22;6689;53.400;12.486;2022-09-13T02:59:08;15.50;99.90
13245;DHT22;6689;53.400;12.486;2022-09-13T03:01:45;15.50;99.90
13245;DHT22;6689;53.400;12.486;2022-09-13T03:04:17;15.50;99.90
13245;DHT22;6689;53.400;12.486;2022-09-13T03:07:02;15.50;99.90
13245;DHT22;6689;53.400;12.486;2022-09-13T03:09:32;15.50;99.90
13245;DHT22;6689;53.400;12.486;2022-09-13T03:12:20;15.50;99.90
13245;DHT22;6689;53.400;12.486;2022-09-13T03:15:12;15.50;99.90
13245;DHT22;6689;53.400;12.486;2022-09-13T03:17:51;15.50;99.90
13245;DHT22;6689;53.400;12.486;2022-09-13T03:20:38;15.50;99.90
13245;DHT22;6689;53.400;12.486;2022-09-13T03:23:47;15.40;99.90
13245;DHT22;6689;53.400;12.486;2022-09-13T03:26:37;15.40;99.90
13245;DHT22;6689;53.400;12.486;2022-09-13T03:29:29;15.30;99.90
13245;DHT22;6689;53.400;12.486;2022-09-13T03:32:06;15.30;1.00
13245;DHT22;6689;53.400;12.486;2022-09-13T03:34:57;15.30;1.00
13245;DHT22;6689;53.400;12.486;2022-09-13T03:37:32;15.30;1.00
13245;DHT22;6689;53.400;12.486;2022-09-13T03:40:21;15.20;1.00
13245;DHT22;6689;53.400;12.486;2022-09-13T03:42:57;15.20;1.00
13245;DHT22;6689;53.400;12.486;2022-09-13T03:45:32;15.20;1.00
13245;DHT22;6689;53.400;12.486;2022-09-13T03:48:14;15.20;1.00
13245;DHT22;6689;53.400;12.486;2022-09-13T03:50:56;15.20;1.00
13245;DHT22;6689;53.400;12.486;2022-09-13T03:53:28;15.20;1.00
13245;DHT22;6689;53.400;12.486;2022-09-13T03:56:19;15.20;1.00
13245;DHT22;6689;53.400;12.486;2022-09-13T03:59:00;15.20;1.00
13245;DHT22;6689;53.400;12.486;2022-09-13T04:01:28;15.20;1.00
13245;DHT22;6689;53.400;12.486;2022-09-13T04:03:58;15.20;1.00
13245;DHT22;6689;53.400;12.486;2022-09-13T04:06:28;15.20;1.00
13245;DHT22;6689;53.400;12.486;2022-09-13T04:09:03;15.20;1.00
13245;DHT22;6689;53.400;12.486;2022-09-13T04:11:58;15.20;1.00
13245;DHT22;6689;53.400;12.486;2022-09-13T04:14:28;15.10;1.00
13245;DHT22;6689;53.400;12.486;2022-09-13T04:17:10;15.20;1.00
13245;DHT22;6689;53.400;12.486;2022-09-13T04:19:43;15.20;1.00
13245;DHT22;6689;53.400;12.486;2022-09-13T04:22:24;15.20;1.00
13245;DHT22;6689;53.400;12.486;2022-09-13T04:24:54;15.20;1.00
13245;DHT22;6689;53.400;12.486;2022-09-13T04:27:52;15.20;1.00
13245;DHT22;6689;53.400;12.486;2022-09-13T04:30:24;15.10;1.00
13245;DHT22;6689;53.400;12.486;2022-09-13T04:32:54;15.10;1.00
13245;DHT22;6689;53.400;12.486;2022-09-13T04:35:34;15.10;1.00
13245;DHT22;6689;53.400;12.486;2022-09-13T04:38:03;15.10;1.00
13245;DHT22;6689;53.400;12.486;2022-09-13T04:40:51;15.10;1.00
13245;DHT22;6689;53.400;12.486;2022-09-13T04:43:34;15.10;1.00
13245;DHT22;6689;53.400;12.486;2022-09-13T04:46:02;15.10;1.00
13245;DHT22;6689;53.400;12.486;2022-09-13T04:48:47;15.00;1.00
13245;DHT22;6689;53.400;12.486;2022-09-13T04:51:28;15.10;1.00
13245;DHT22;6689;53.400;12.486;2022-09-13T04:54:10;15.00;1.00
13245;DHT22;6689;53.400;12.486;2022-09-13T04:56:39;15.00;1.00
13245;DHT22;6689;53.400;12.486;2022-09-13T04:59:10;15.00;1.00
13245;DHT22;6689;53.400;12.486;2022-09-13T05:01:38;15.00;1.00
13245;DHT22;6689;53.400;12.486;2022-09-13T05:04:19;15.00;1.00
13245;DHT22;6689;53.400;12.486;2022-09-13T05:06:49;15.00;1.00
13245;DHT22;6689;53.400;12.486;2022-09-13T05:09:30;15.10;1.00
13245;DHT22;6689;53.400;12.486;2022-09-13T05:11:58;15.00;1.00
13245;DHT22;6689;53.400;12.486;2022-09-13T05:14:29;15.00;1.00
13245;DHT22;6689;53.400;12.486;2022-09-13T05:17:10;15.00;1.00
13245;DHT22;6689;53.400;12.486;2022-09-13T05:19:39;15.10;1.00
13245;DHT22;6689;53.400;12.486;2022-09-13T05:22:09;15.10;1.00
13245;DHT22;6689;53.400;12.486;2022-09-13T05:24:50;15.10;1.00
13245;DHT22;6689;53.400;12.486;2022-09-13T05:27:34;15.10;1.00
13245;DHT22;6689;53.400;12.486;2022-09-13T05:30:17;15.10;1.00
13245;DHT22;6689;53.400;12.486;2022-09-13T05:32:58;15.10;1.00
13245;DHT22;6689;53.400;12.486;2022-09-13T05:35:33;15.10;1.00
13245;DHT22;6689;53.400;12.486;2022-09-13T05:38:04;15.10;1.00
13245;DHT22;6689;53.400;12.486;2022-09-13T05:40:35;14.90;1.00
13245;DHT22;6689;53.400;12.486;2022-09-13T05:43:04;15.20;1.00
13245;DHT22;6689;53.400;12.486;2022-09-13T05:49:10;15.20;1.00
13245;DHT22;6689;53.400;12.486;2022-09-13T05:51:39;15.20;1.00
13245;DHT22;6689;53.400;12.486;2022-09-13T05:54:10;15.20;1.00
13245;DHT22;6689;53.400;12.486;2022-09-13T05:56:51;15.30;1.00
13245;DHT22;6689;53.400;12.486;2022-09-13T05:59:22;15.30;1.00
13245;DHT22;6689;53.400;12.486;2022-09-13T06:01:50;15.40;1.00
13245;DHT22;6689;53.400;12.486;2022-09-13T06:04:34;15.40;1.00
13245;DHT22;6689;53.400;12.486;2022-09-13T06:07:15;15.40;1.00
13245;DHT22;6689;53.400;12.486;2022-09-13T06:09:56;15.50;1.00
13245;DHT22;6689;53.400;12.486;2022-09-13T06:12:25;15.50;1.00
13245;DHT22;6689;53.400;12.486;2022-09-13T06:14:54;15.50;1.00
13245;DHT22;6689;53.400;12.486;2022-09-13T06:17:29;15.50;1.00
13245;DHT22;6689;53.400;12.486;2022-09-13T06:20:19;15.50;1.00
13245;DHT22;6689;53.400;12.486;2022-09-13T06:22:47;15.60;1.00
13245;DHT22;6689;53.400;12.486;2022-09-13T06:25:14;15.60;23.50
13245;DHT22;6689;53.400;12.486;2022-09-13T06:27:44;15.60;30.70
13245;DHT22;6689;53.400;12.486;2022-09-13T06:30:25;15.60;1.00
13245;DHT22;6689;53.400;12.486;2022-09-13T06:32:55;15.60;1.00
13245;DHT22;6689;53.400;12.486;2022-09-13T06:39:04;15.60;1.00
13245;DHT22;6689;53.400;12.486;2022-09-13T06:41:39;15.60;12.10
13245;DHT22;6689;53.400;12.486;2022-09-13T06:44:06;15.60;5.00
13245;DHT22;6689;53.400;12.486;2022-09-13T06:46:35;15.60;22.10
13245;DHT22;6689;53.400;12.486;2022-09-13T06:49:06;15.60;37.00
13245;DHT22;6689;53.400;12.486;2022-09-13T06:51:35;15.60;54.30
13245;DHT22;6689;53.400;12.486;2022-09-13T06:54:34;15.60;53.20
13245;DHT22;6689;53.400;12.486;2022-09-13T06:57:08;15.60;73.10
13245;DHT22;6689;53.400;12.486;2022-09-13T06:59:40;15.60;85.90
13245;DHT22;6689;53.400;12.486;2022-09-13T07:02:11;15.70;85.80
13245;DHT22;6689;53.400;12.486;2022-09-13T07:04:40;15.70;92.50
13245;DHT22;6689;53.400;12.486;2022-09-13T07:07:10;15.80;84.00
13245;DHT22;6689;53.400;12.486;2022-09-13T07:09:46;15.70;87.10
13245;DHT22;6689;53.400;12.486;2022-09-13T07:12:27;15.80;99.90
13245;DHT22;6689;53.400;12.486;2022-09-13T07:14:54;15.80;99.90
13245;DHT22;6689;53.400;12.486;2022-09-13T07:17:35;15.90;99.90
13245;DHT22;6689;53.400;12.486;2022-09-13T07:20:19;15.90;99.90
13245;DHT22;6689;53.400;12.486;2022-09-13T07:22:50;15.90;99.90
13245;DHT22;6689;53.400;12.486;2022-09-13T07:25:40;16.00;99.90
13245;DHT22;6689;53.400;12.486;2022-09-13T07:28:21;16.00;99.90
13245;DHT22;6689;53.400;12.486;2022-09-13T07:31:07;16.10;99.90
13245;DHT22;6689;53.400;12.486;2022-09-13T07:33:35;16.10;99.90
13245;DHT22;6689;53.400;12.486;2022-09-13T07:36:13;16.10;99.90
13245;DHT22;6689;53.400;12.486;2022-09-13T07:38:41;16.10;99.90
13245;DHT22;6689;53.400;12.486;2022-09-13T07:41:32;16.00;99.90
13245;DHT22;6689;53.400;12.486;2022-09-13T07:44:01;16.10;99.90
13245;DHT22;6689;53.400;12.486;2022-09-13T07:46:34;16.10;99.90
13245;DHT22;6689;53.400;12.486;2022-09-13T07:49:12;16.10;99.90
13245;DHT22;6689;53.400;12.486;2022-09-13T07:51:42;16.00;99.90
13245;DHT22;6689;53.400;12.486;2022-09-13T07:54:16;16.10;99.90
13245;DHT22;6689;53.400;12.486;2022-09-13T07:59:55;16.20;99.90
13245;DHT22;6689;53.400;12.486;2022-09-13T08:02:36;16.20;99.90
13245;DHT22;6689;53.400;12.486;2022-09-13T08:05:15;16.30;99.90
13245;DHT22;6689;53.400;12.486;2022-09-13T08:07:45;16.30;99.90
13245;DHT22;6689;53.400;12.486;2022-09-13T08:10:15;16.30;99.90
13245;DHT22;6689;53.400;12.486;2022-09-13T08:12:46;16.40;99.90
13245;DHT22;6689;53.400;12.486;2022-09-13T08:15:22;16.40;99.90
13245;DHT22;6689;53.400;12.486;2022-09-13T08:17:51;16.40;99.90
13245;DHT22;6689;53.400;12.486;2022-09-13T08:20:22;16.40;99.90
13245;DHT22;6689;53.400;12.486;2022-09-13T08:23:02;16.40;99.90
13245;DHT22;6689;53.400;12.486;2022-09-13T08:25:31;16.40;99.90
13245;DHT22;6689;53.400;12.486;2022-09-13T08:28:14;16.40;99.90
13245;DHT22;6689;53.400;12.486;2022-09-13T08:31:02;16.40;99.90
13245;DHT22;6689;53.400;12.486;2022-09-13T08:33:44;16.50;99.90
13245;DHT22;6689;53.400;12.486;2022-09-13T08:36:12;16.60;99.90
13245;DHT22;6689;53.400;12.486;2022-09-13T08:38:55;16.60;99.90
13245;DHT22;6689;53.400;12.486;2022-09-13T08:41:59;16.80;99.90
13245;DHT22;6689;53.400;12.486;2022-09-13T08:44:44;16.90;99.90
13245;DHT22;6689;53.400;12.486;2022-09-13T08:47:37;17.00;99.90
13245;DHT22;6689;53.400;12.486;2022-09-13T08:50:12;17.00;99.90
13245;DHT22;6689;53.400;12.486;2022-09-13T08:52:54;17.10;99.90
13245;DHT22;6689;53.400;12.486;2022-09-13T08:55:49;17.10;99.90
13245;DHT22;6689;53.400;12.486;2022-09-13T08:58:36;17.20;99.90
13245;DHT22;6689;53.400;12.486;2022-09-13T09:01:30;17.20;99.90
13245;DHT22;6689;53.400;12.486;2022-09-13T09:04:24;17.20;99.90
13245;DHT22;6689;53.400;12.486;2022-09-13T09:07:12;17.20;99.90
13245;DHT22;6689;53.400;12.486;2022-09-13T09:09:43;17.10;99.90
13245;DHT22;6689;53.400;12.486;2022-09-13T09:12:25;17.20;99.90
13245;DHT22;6689;53.400;12.486;2022-09-13T09:15:02;17.20;99.90
13245;DHT22;6689;53.400;12.486;2022-09-13T09:17:38;17.30;99.90
13245;DHT22;6689;53.400;12.486;2022-09-13T09:20:26;17.20;99.90
13245;DHT22;6689;53.400;12.486;2022-09-13T09:23:14;17.30;99.90
13245;DHT22;6689;53.400;12.486;2022-09-13T09:26:04;17.30;99.90
13245;DHT22;6689;53.400;12.486;2022-09-13T09:28:37;17.50;99.90
13245;DHT22;6689;53.400;12.486;2022-09-13T09:31:14;17.50;99.90
13245;DHT22;6689;53.400;12.486;2022-09-13T09:34:04;17.60;99.90
13245;DHT22;6689;53.400;12.486;2022-09-13T09:36:47;17.60;99.90
13245;DHT22;6689;53.400;12.486;2022-09-13T09:39:28;17.80;99.90
13245;DHT22;6689;53.400;12.486;2022-09-13T09:42:12;18.00;99.90
13245;DHT22;6689;53.400;12.486;2022-09-13T09:44:45;18.10;99.90
13245;DHT22;6689;53.400;12.486;2022-09-13T09:47:20;18.10;99.90
13245;DHT22;6689;53.400;12.486;2022-09-13T09:49:51;18.00;99.90
13245;DHT22;6689;53.400;12.486;2022-09-13T09:52:45;18.30;99.90
13245;DHT22;6689;53.400;12.486;2022-09-13T09:55:27;18.30;99.90
13245;DHT22;6689;53.400;12.486;2022-09-13T09:58:04;18.30;99.90
13245;DHT22;6689;53.400;12.486;2022-09-13T10:00:36;18.40;87.60
13245;DHT22;6689;53.400;12.486;2022-09-13T10:03:14;18.70;99.90
13245;DHT22;6689;53.400;12.486;2022-09-13T10:05:43;18.90;99.90
13245;DHT22;6689;53.400;12.486;2022-09-13T10:08:27;19.10;47.10
13245;DHT22;6689;53.400;12.486;2022-09-13T10:11:09;19.30;19.50
13245;DHT22;6689;53.400;12.486;2022-09-13T10:14:01;19.50;1.00
13245;DHT22;6689;53.400;12.486;2022-09-13T10:16:29;19.80;1.00
13245;DHT22;6689;53.400;12.486;2022-09-13T10:19:22;19.80;1.00
13245;DHT22;6689;53.400;12.486;2022-09-13T10:22:02;20.00;1.00
13245;DHT22;6689;53.400;12.486;2022-09-13T10:24:52;20.10;1.00
13245;DHT22;6689;53.400;12.486;2022-09-13T10:27:29;20.30;1.00
13245;DHT22;6689;53.400;12.486;2022-09-13T10:30:31;20.30;1.00
13245;DHT22;6689;53.400;12.486;2022-09-13T10:33:03;20.60;1.00
13245;DHT22;6689;53.400;12.486;2022-09-13T10:35:47;20.60;1.00
13245;DHT22;6689;53.400;12.486;2022-09-13T10:38:30;20.80;1.00
13245;DHT22;6689;53.400;12.486;2022-09-13T10:41:26;20.90;1.00
13245;DHT22;6689;53.400;12.486;2022-09-13T10:43:59;20.90;1.00
13245;DHT22;6689;53.400;12.486;2022-09-13T10:46:41;20.80;1.00
13245;DHT22;6689;53.400;12.486;2022-09-13T10:49:37;20.90;1.00
13245;DHT22;6689;53.400;12.486;2022-09-13T10:52:31;20.90;99.90
13245;DHT22;6689;53.400;12.486;2022-09-13T10:55:24;20.90;99.90
13245;DHT22;6689;53.400;12.486;2022-09-13T10:58:26;21.00;99.90
13245;DHT22;6689;53.400;12.486;2022-09-13T11:01:32;20.90;99.90
13245;DHT22;6689;53.400;12.486;2022-09-13T11:04:58;20.90;99.90
13245;DHT22;6689;53.400;12.486;2022-09-13T11:07:58;20.80;99.90
13245;DHT22;6689;53.400;12.486;2022-09-13T11:10:35;21.10;1.00
13245;DHT22;6689;53.400;12.486;2022-09-13T11:13:19;21.30;1.00
13245;DHT22;6689;53.400;12.486;2022-09-13T11:15:54;21.10;99.90
13245;DHT22;6689;53.400;12.486;2022-09-13T11:18:48;21.00;99.90
13245;DHT22;6689;53.400;12.486;2022-09-13T11:21:27;21.30;99.90
13245;DHT22;6689;53.400;12.486;2022-09-13T11:24:12;21.40;99.90
13245;DHT22;6689;53.400;12.486;2022-09-13T11:26:51;21.50;99.90
13245;DHT22;6689;53.400;12.486;2022-09-13T11:29:58;21.60;99.90
13245;DHT22;6689;53.400;12.486;2022-09-13T11:33:04;21.80;99.90
13245;DHT22;6689;53.400;12.486;2022-09-13T11:35:57;22.00;99.90
13245;DHT22;6689;53.400;12.486;2022-09-13T11:41:38;21.90;99.90
13245;DHT22;6689;53.400;12.486;2022-09-13T11:44:22;21.90;99.90
13245;DHT22;6689;53.400;12.486;2022-09-13T11:47:02;21.80;99.90
13245;DHT22;6689;53.400;12.486;2022-09-13T11:49:58;21.80;99.90
13245;DHT22;6689;53.400;12.486;2022-09-13T11:52:58;21.70;99.90
13245;DHT22;6689;53.400;12.486;2022-09-13T11:55:36;21.70;99.90
13245;DHT22;6689;53.400;12.486;2022-09-13T11:58:22;21.80;99.90
13245;DHT22;6689;53.400;12.486;2022-09-13T12:01:06;21.80;99.90
13245;DHT22;6689;53.400;12.486;2022-09-13T12:03:41;21.80;99.90
13245;DHT22;6689;53.400;12.486;2022-09-13T12:06:26;22.00;99.90
13245;DHT22;6689;53.400;12.486;2022-09-13T12:09:14;22.20;99.90
13245;DHT22;6689;53.400;12.486;2022-09-13T12:11:47;22.10;99.90
13245;DHT22;6689;53.400;12.486;2022-09-13T12:14:21;22.20;99.90
13245;DHT22;6689;53.400;12.486;2022-09-13T12:16:56;22.40;99.90
13245;DHT22;6689;53.400;12.486;2022-09-13T12:19:42;22.50;99.90
13245;DHT22;6689;53.400;12.486;2022-09-13T12:22:27;22.50;99.90
13245;DHT22;6689;53.400;12.486;2022-09-13T12:25:05;22.40;99.90
13245;DHT22;6689;53.400;12.486;2022-09-13T12:27:38;22.50;99.90
13245;DHT22;6689;53.400;12.486;2022-09-13T12:30:14;22.50;99.90
13245;DHT22;6689;53.400;12.486;2022-09-13T12:32:45;22.60;99.90
13245;DHT22;6689;53.400;12.486;2022-09-13T12:35:21;22.60;99.90
13245;DHT22;6689;53.400;12.486;2022-09-13T12:44:31;22.30;99.90
13245;DHT22;6689;53.400;12.486;2022-09-13T12:47:19;22.20;99.90
13245;DHT22;6689;53.400;12.486;2022-09-13T12:52:50;22.20;99.90
13245;DHT22;6689;53.400;12.486;2022-09-13T12:55:46;22.40;99.90
13245;DHT22;6689;53.400;12.486;2022-09-13T12:58:42;22.50;99.90
13245;DHT22;6689;53.400;12.486;2022-09-13T13:01:27;22.70;99.90
13245;DHT22;6689;53.400;12.486;2022-09-13T13:03:58;22.90;99.90
13245;DHT22;6689;53.400;12.486;2022-09-13T13:06:32;23.10;99.90
13245;DHT22;6689;53.400;12.486;2022-09-13T13:09:06;22.90;74.50
13245;DHT22;6689;53.400;12.486;2022-09-13T13:12:00;23.10;99.90
13245;DHT22;6689;53.400;12.486;2022-09-13T13:14:50;22.90;61.00
13245;DHT22;6689;53.400;12.486;2022-09-13T13:17:40;22.80;21.20
13245;DHT22;6689;53.400;12.486;2022-09-13T13:21:05;22.50;30.20
13245;DHT22;6689;53.400;12.486;2022-09-13T13:23:40;22.30;52.00
13245;DHT22;6689;53.400;12.486;2022-09-13T13:26:43;22.20;53.90
13245;DHT22;6689;53.400;12.486;2022-09-13T13:29:13;22.20;54.30
13245;DHT22;6689;53.400;12.486;2022-09-13T13:32:18;22.00;26.80
13245;DHT22;6689;53.400;12.486;2022-09-13T13:34:50;22.30;62.90
13245;DHT22;6689;53.400;12.486;2022-09-13T13:37:34;22.30;13.60
13245;DHT22;6689;53.400;12.486;2022-09-13T13:40:25;22.40;13.80
13245;DHT22;6689;53.400;12.486;2022-09-13T13:46:27;22.40;1.00
13245;DHT22;6689;53.400;12.486;2022-09-13T13:55:42;22.40;1.00
13245;DHT22;6689;53.400;12.486;2022-09-13T13:58:41;22.20;1.00
13245;DHT22;6689;53.400;12.486;2022-09-13T14:01:16;22.10;1.00
13245;DHT22;6689;53.400;12.486;2022-09-13T14:07:51;22.00;1.00
13245;DHT22;6689;53.400;12.486;2022-09-13T14:10:28;22.10;1.00
13245;DHT22;6689;53.400;12.486;2022-09-13T14:13:37;22.10;1.00
13245;DHT22;6689;53.400;12.486;2022-09-13T14:16:36;22.20;1.00
13245;DHT22;6689;53.400;12.486;2022-09-13T14:19:24;22.20;1.00
13245;DHT22;6689;53.400;12.486;2022-09-13T14:22:05;22.20;1.00
13245;DHT22;6689;53.400;12.486;2022-09-13T14:24:47;22.10;1.00
13245;DHT22;6689;53.400;12.486;2022-09-13T14:27:19;22.20;1.00
13245;DHT22;6689;53.400;12.486;2022-09-13T14:30:30;22.30;1.00
13245;DHT22;6689;53.400;12.486;2022-09-13T14:33:02;22.10;1.00
13245;DHT22;6689;53.400;12.486;2022-09-13T14:35:32;22.00;1.00
13245;DHT22;6689;53.400;12.486;2022-09-13T14:38:19;22.00;1.00
13245;DHT22;6689;53.400;12.486;2022-09-13T14:40:47;22.00;1.00
13245;DHT22;6689;53.400;12.486;2022-09-13T14:43:21;22.10;1.00
13245;DHT22;6689;53.400;12.486;2022-09-13T14:46:21;22.10;1.00
13245;DHT22;6689;53.400;12.486;2022-09-13T14:48:59;22.20;1.00
13245;DHT22;6689;53.400;12.486;2022-09-13T14:51:32;22.20;1.00
13245;DHT22;6689;53.400;12.486;2022-09-13T14:54:07;22.10;1.00
13245;DHT22;6689;53.400;12.486;2022-09-13T14:56:52;22.00;1.00
13245;DHT22;6689;53.400;12.486;2022-09-13T14:59:25;22.00;1.00
13245;DHT22;6689;53.400;12.486;2022-09-13T15:02:18;22.00;1.00
13245;DHT22;6689;53.400;12.486;2022-09-13T15:04:50;22.00;1.00
13245;DHT22;6689;53.400;12.486;2022-09-13T15:07:27;21.90;1.00
13245;DHT22;6689;53.400;12.486;2022-09-13T15:10:21;22.00;1.00
13245;DHT22;6689;53.400;12.486;2022-09-13T15:13:08;21.90;1.00
13245;DHT22;6689;53.400;12.486;2022-09-13T15:15:37;21.80;1.00
13245;DHT22;6689;53.400;12.486;2022-09-13T15:18:30;21.80;1.00
13245;DHT22;6689;53.400;12.486;2022-09-13T15:21:03;21.60;1.00
13245;DHT22;6689;53.400;12.486;2022-09-13T15:23:35;21.60;1.00
13245;DHT22;6689;53.400;12.486;2022-09-13T15:26:08;21.60;1.00
13245;DHT22;6689;53.400;12.486;2022-09-13T15:28:54;21.60;1.00
13245;DHT22;6689;53.400;12.486;2022-09-13T15:31:35;21.60;1.00
13245;DHT22;6689;53.400;12.486;2022-09-13T15:34:22;21.50;1.00
13245;DHT22;6689;53.400;12.486;2022-09-13T15:37:11;21.50;1.00
13245;DHT22;6689;53.400;12.486;2022-09-13T15:40:11;21.50;1.00
13245;DHT22;6689;53.400;12.486;2022-09-13T15:42:46;21.50;1.00
13245;DHT22;6689;53.400;12.486;2022-09-13T15:45:17;21.50;1.00
13245;DHT22;6689;53.400;12.486;2022-09-13T15:47:48;21.40;1.00
13245;DHT22;6689;53.400;12.486;2022-09-13T15:50:39;21.30;1.00
13245;DHT22;6689;53.400;12.486;2022-09-13T15:53:16;21.20;1.00
13245;DHT22;6689;53.400;12.486;2022-09-13T15:56:04;21.30;1.00
13245;DHT22;6689;53.400;12.486;2022-09-13T15:58:46;21.10;1.00
13245;DHT22;6689;53.400;12.486;2022-09-13T16:01:18;21.20;1.00
13245;DHT22;6689;53.400;12.486;2022-09-13T16:03:59;21.10;1.00
13245;DHT22;6689;53.400;12.486;2022-09-13T16:06:46;21.10;1.00
13245;DHT22;6689;53.400;12.486;2022-09-13T16:09:17;21.10;1.00
13245;DHT22;6689;53.400;12.486;2022-09-13T16:11:47;21.00;1.00
13245;DHT22;6689;53.400;12.486;2022-09-13T16:14:18;20.90;1.00
13245;DHT22;6689;53.400;12.486;2022-09-13T16:17:02;21.00;1.00
13245;DHT22;6689;53.400;12.486;2022-09-13T16:19:44;20.80;1.00
13245;DHT22;6689;53.400;12.486;2022-09-13T16:22:31;20.90;1.00
13245;DHT22;6689;53.400;12.486;2022-09-13T16:25:08;20.80;1.00
13245;DHT22;6689;53.400;12.486;2022-09-13T16:27:37;20.80;1.00
13245;DHT22;6689;53.400;12.486;2022-09-13T16:30:08;20.70;1.00
13245;DHT22;6689;53.400;12.486;2022-09-13T16:32:36;20.70;1.00
13245;DHT22;6689;53.400;12.486;2022-09-13T16:35:17;20.80;1.00
13245;DHT22;6689;53.400;12.486;2022-09-13T16:38:08;20.80;1.00
13245;DHT22;6689;53.400;12.486;2022-09-13T16:40:50;20.70;1.00
13245;DHT22;6689;53.400;12.486;2022-09-13T16:43:18;20.60;1.00
13245;DHT22;6689;53.400;12.486;2022-09-13T16:45:53;20.50;1.00
13245;DHT22;6689;53.400;12.486;2022-09-13T16:48:29;20.50;1.00
13245;DHT22;6689;53.400;12.486;2022-09-13T16:51:08;20.40;1.00
13245;DHT22;6689;53.400;12.486;2022-09-13T16:53:52;20.40;1.00
13245;DHT22;6689;53.400;12.486;2022-09-13T16:56:26;20.40;1.00
13245;DHT22;6689;53.400;12.486;2022-09-13T16:58:55;20.30;1.00
13245;DHT22;6689;53.400;12.486;2022-09-13T17:01:24;20.30;1.00
13245;DHT22;6689;53.400;12.486;2022-09-13T17:03:57;20.20;1.00
13245;DHT22;6689;53.400;12.486;2022-09-13T17:06:26;20.20;1.00
13245;DHT22;6689;53.400;12.486;2022-09-13T17:09:01;20.10;1.00
13245;DHT22;6689;53.400;12.486;2022-09-13T17:11:43;20.10;1.00
13245;DHT22;6689;53.400;12.486;2022-09-13T17:14:12;20.10;1.00
13245;DHT22;6689;53.400;12.486;2022-09-13T17:16:45;20.10;1.00
13245;DHT22;6689;53.400;12.486;2022-09-13T17:19:18;20.00;1.00
13245;DHT22;6689;53.400;12.486;2022-09-13T17:21:46;19.90;1.00
13245;DHT22;6689;53.400;12.486;2022-09-13T17:24:25;19.90;1.00
13245;DHT22;6689;53.400;12.486;2022-09-13T17:26:54;19.80;1.00
13245;DHT22;6689;53.400;12.486;2022-09-13T17:29:26;19.80;1.00
13245;DHT22;6689;53.400;12.486;2022-09-13T17:31:59;19.70;1.00
13245;DHT22;6689;53.400;12.486;2022-09-13T17:34:27;19.60;6.90
13245;DHT22;6689;53.400;12.486;2022-09-13T17:37:08;19.50;1.00